Time;durP1;ratioP1;P1;durP2;ratioP2;P2;SDS_P1;SDS_P2;PMS_P1;PMS_P2;Temp;Humidity;BMP_temperature;BMP_pressure;BME280_temperature;BME280_humidity;BME280_pressure;Samples;Min_cycle;Max_cycle;Signal;HPM_P1;HPM_P2
2022/11/06 00:01:14;;;;;;;53.40;28.35;;;;;;;11.64;97.25;100315.34;4967423;28;20587;-78
2022/11/06 00:03:40;;;;;;;48.03;26.60;;;;;;;11.55;97.98;100312.50;4967217;28;20498;-78
2022/11/06 00:08:52;;;;;;;37.55;22.08;;;;;;;11.57;97.67;100304.78;4967488;28;20077;-75
2022/11/06 00:11:18;;;;;;;35.67;20.13;;;;;;;11.52;98.06;100296.03;4967274;28;20034;-75
2022/11/06 00:13:46;;;;;;;39.75;21.23;;;;;;;11.64;97.34;100319.66;4970795;28;20061;-82
2022/11/06 00:16:13;;;;;;;35.95;21.10;;;;;;;11.68;97.23;100313.75;5003257;28;20037;-79
2022/11/06 00:18:40;;;;;;;41.60;23.08;;;;;;;11.62;96.76;100308.38;5009362;28;20030;-79
2022/11/06 00:21:10;;;;;;;37.80;22.35;;;;;;;11.56;96.59;100311.66;5008022;28;20485;-78
2022/11/06 00:23:37;;;;;;;45.53;25.40;;;;;;;11.53;96.32;100302.94;5008009;28;20060;-79
2022/11/06 00:26:11;;;;;;;39.60;21.77;;;;;;;11.60;95.30;100305.75;5008001;28;20037;-78
2022/11/06 00:28:36;;;;;;;32.78;22.50;;;;;;;11.52;95.36;100290.84;5007845;28;20437;-78
2022/11/06 00:31:04;;;;;;;42.72;20.38;;;;;;;11.52;94.88;100302.06;5008151;28;20033;-78
2022/11/06 00:33:29;;;;;;;32.17;19.67;;;;;;;11.46;95.23;100283.78;5009000;28;20030;-78
2022/11/06 00:35:55;;;;;;;33.30;18.30;;;;;;;11.07;95.56;100235.22;5009152;28;20036;-79
2022/11/06 00:38:21;;;;;;;27.77;17.20;;;;;;;11.28;96.20;100276.34;5009059;28;20495;-78
2022/11/06 00:40:46;;;;;;;29.25;16.80;;;;;;;11.27;96.46;100283.22;5006792;28;20050;-78
2022/11/06 00:43:12;;;;;;;30.35;15.43;;;;;;;11.26;96.95;100278.88;5007262;28;20037;-78
2022/11/06 00:45:37;;;;;;;31.15;15.65;;;;;;;11.07;97.66;100261.06;5007825;28;20030;-78
2022/11/06 00:48:03;;;;;;;23.25;13.13;;;;;;;11.06;98.34;100278.25;5024156;28;20090;-78
2022/11/06 00:50:28;;;;;;;28.33;14.05;;;;;;;11.10;97.56;100282.69;5007695;28;20030;-79
2022/11/06 00:52:54;;;;;;;24.42;12.98;;;;;;;11.13;97.45;100289.66;5009103;28;20041;-78
2022/11/06 00:55:20;;;;;;;21.63;11.75;;;;;;;11.10;97.08;100284.38;5007458;28;20041;-78
2022/11/06 00:57:45;;;;;;;30.58;12.73;;;;;;;11.05;97.28;100279.06;5007384;28;20026;-78
2022/11/06 01:00:11;;;;;;;22.65;11.88;;;;;;;10.81;97.42;100250.75;5007620;28;20120;-78
2022/11/06 01:02:37;;;;;;;21.55;11.82;;;;;;;10.86;97.32;100287.06;5008994;28;20037;-78
2022/11/06 01:05:04;;;;;;;28.85;11.68;;;;;;;10.95;97.29;100295.09;5008649;28;20037;-79
2022/11/06 01:07:29;;;;;;;22.17;11.85;;;;;;;10.93;96.68;100289.91;5008394;28;20041;-78
2022/11/06 01:09:54;;;;;;;24.63;11.75;;;;;;;10.92;96.61;100289.84;5008688;28;20026;-79
2022/11/06 01:12:20;;;;;;;24.65;12.63;;;;;;;10.97;96.77;100283.13;5005899;28;20041;-79
2022/11/06 01:14:45;;;;;;;20.83;12.65;;;;;;;11.01;96.02;100282.38;5006327;28;20196;-78
2022/11/06 01:17:11;;;;;;;21.40;12.00;;;;;;;10.98;95.62;100269.38;5006205;28;20439;-79
2022/11/06 01:19:37;;;;;;;22.02;13.23;;;;;;;11.11;95.38;100287.00;5006327;28;20041;-78
2022/11/06 01:22:02;;;;;;;21.08;11.60;;;;;;;11.08;95.12;100279.19;5005727;28;20049;-78
2022/11/06 01:24:28;;;;;;;20.38;13.00;;;;;;;11.11;94.67;100274.09;5022496;28;20905;-79
2022/11/06 01:26:55;;;;;;;22.92;11.85;;;;;;;11.21;94.89;100287.31;5005751;28;20632;-79
2022/11/06 01:29:23;;;;;;;22.65;12.88;;;;;;;11.21;94.38;100283.00;5005799;28;20034;-79
2022/11/06 01:31:49;;;;;;;27.98;12.18;;;;;;;11.19;94.40;100266.59;5022172;28;20133;-78
2022/11/06 01:34:15;;;;;;;25.83;13.00;;;;;;;11.25;93.52;100282.31;5006047;28;20034;-78
2022/11/06 01:36:41;;;;;;;32.35;16.25;;;;;;;11.06;93.11;100270.50;5005864;28;20030;-78
2022/11/06 01:39:08;;;;;;;27.92;16.13;;;;;;;11.08;93.48;100271.44;5005912;28;20038;-79
2022/11/06 01:41:42;;;;;;;34.22;17.00;;;;;;;11.13;93.79;100275.03;5005612;28;20054;-79
2022/11/06 01:44:30;;;;;;;27.63;16.13;;;;;;;11.15;93.58;100280.25;5036491;28;20049;-79
2022/11/06 01:46:56;;;;;;;66.80;33.40;;;;;;;10.60;94.42;100196.72;5008136;28;20121;-78
2022/11/06 01:49:26;;;;;;;89.05;47.45;;;;;;;11.06;94.94;100280.81;5008040;28;20061;-78
2022/11/06 01:51:56;;;;;;;;;;;;;;;11.00;95.53;100278.03;5008244;28;20452;-78
2022/11/06 01:54:25;;;;;;;91.15;48.88;;;;;;;10.93;96.33;100289.00;5006975;28;19920;-79
2022/11/06 01:56:53;;;;;;;77.22;48.33;;;;;;;10.92;96.08;100279.53;5006900;28;20442;-78
2022/11/06 01:59:23;;;;;;;82.93;50.08;;;;;;;10.92;96.21;100276.94;5006758;28;20041;-79
2022/11/06 02:01:49;;;;;;;80.93;48.53;;;;;;;10.73;95.87;100271.16;5075532;28;20091;-79
2022/11/06 02:04:21;;;;;;;91.53;53.70;;;;;;;10.56;97.12;100273.19;5007770;28;20034;-79
2022/11/06 02:06:47;;;;;;;99.40;55.85;;;;;;;10.40;97.99;100266.63;5007925;28;20038;-78
2022/11/06 02:09:13;;;;;;;68.80;43.67;;;;;;;10.07;98.74;100222.44;5008014;28;20037;-78
2022/11/06 02:12:00;;;;;;;67.68;39.47;;;;;;;10.28;99.43;100272.22;5007978;28;20109;-78
2022/11/06 02:15:18;;;;;;;47.63;26.13;;;;;;;10.14;100.00;100279.47;5007674;28;20487;-79
2022/11/06 02:18:07;;;;;;;42.38;20.48;;;;;;;10.01;100.00;100282.44;4946889;28;20050;-78
2022/11/06 02:21:07;;;;;;;29.98;16.23;;;;;;;9.95;100.00;100271.88;4946823;28;20110;-78
2022/11/06 02:23:51;;;;;;;;;;;;;;;10.03;100.00;100275.59;4947772;28;20031;-78
2022/11/06 02:26:47;;;;;;;26.08;12.68;;;;;;;10.16;100.00;100279.53;4946956;28;19950;-78
2022/11/06 02:29:23;;;;;;;21.35;12.30;;;;;;;10.10;100.00;100264.69;4930728;28;20028;-79
2022/11/06 02:31:53;;;;;;;20.27;12.73;;;;;;;10.12;100.00;100281.09;4946877;28;20035;-79
2022/11/06 02:34:23;;;;;;;22.33;12.30;;;;;;;10.14;100.00;100270.84;4947281;29;20541;-79
2022/11/06 02:36:58;;;;;;;29.17;13.43;;;;;;;10.05;100.00;100243.00;4946879;29;20501;-78
2022/11/06 02:39:28;;;;;;;25.23;13.90;;;;;;;10.19;100.00;100283.09;4946759;28;20039;-79
2022/11/06 02:41:58;;;;;;;19.77;12.82;;;;;;;10.08;100.00;100261.19;4946597;28;20055;-79
2022/11/06 02:44:27;;;;;;;20.15;13.32;;;;;;;10.08;100.00;100274.09;4947355;28;20039;-79
2022/11/06 02:46:57;;;;;;;25.20;13.75;;;;;;;10.08;99.54;100262.88;4930751;28;20138;-79
2022/11/06 02:49:35;;;;;;;30.60;13.77;;;;;;;10.15;98.93;100265.72;4946886;28;20483;-79
2022/11/06 02:52:08;;;;;;;27.83;14.13;;;;;;;10.17;98.61;100264.09;4946859;28;20053;-78
2022/11/06 02:54:39;;;;;;;26.27;13.48;;;;;;;10.07;99.07;100262.00;5007242;28;20403;-79
2022/11/06 02:57:08;;;;;;;24.50;12.93;;;;;;;10.14;98.97;100279.47;5006143;28;20522;-79
2022/11/06 02:59:40;;;;;;;25.42;13.23;;;;;;;10.11;98.70;100269.03;5007277;28;20514;-79
2022/11/06 03:02:12;;;;;;;22.90;13.10;;;;;;;10.14;98.23;100288.88;5007120;28;20105;-79
2022/11/06 03:04:50;;;;;;;29.40;13.68;;;;;;;9.98;98.38;100272.88;5008097;28;20022;-79
2022/11/06 03:07:27;;;;;;;21.67;13.60;;;;;;;9.92;98.68;100276.91;5010388;28;20049;-79
2022/11/06 03:09:53;;;;;;;26.02;13.32;;;;;;;9.94;98.73;100275.28;5010407;28;20026;-79
2022/11/06 03:12:29;;;;;;;24.58;13.35;;;;;;;9.98;98.53;100274.56;5009166;28;20052;-79
2022/11/06 03:15:18;;;;;;;26.23;13.25;;;;;;;9.94;98.67;100271.00;5010258;28;20041;-79
2022/11/06 03:17:55;;;;;;;22.00;13.15;;;;;;;9.65;98.29;100219.25;5009231;28;20030;-79
2022/11/06 03:20:39;;;;;;;25.35;13.00;;;;;;;9.88;98.58;100270.75;5009113;28;20026;-79
2022/11/06 03:23:10;;;;;;;24.40;13.68;;;;;;;9.74;99.19;100280.56;5010212;28;20037;-78
2022/11/06 03:25:54;;;;;;;20.08;14.50;;;;;;;9.77;99.08;100275.56;5008937;28;20034;-79
2022/11/06 03:28:31;;;;;;;25.35;15.02;;;;;;;9.66;99.01;100274.28;5008866;28;20030;-79
2022/11/06 03:31:08;;;;;;;24.45;14.27;;;;;;;9.64;99.18;100274.19;5010033;28;20054;-78
2022/11/06 03:33:42;;;;;;;23.27;14.20;;;;;;;9.68;99.20;100288.06;5008825;28;20490;-79
2022/11/06 03:36:14;;;;;;;24.05;14.40;;;;;;;9.65;99.45;100282.81;5008653;28;20072;-78
2022/11/06 03:38:45;;;;;;;21.52;14.30;;;;;;;9.63;99.32;100285.34;5010347;28;20037;-79
2022/11/06 03:41:17;;;;;;;24.02;14.63;;;;;;;9.63;99.31;100274.16;5009392;28;20084;-79
2022/11/06 03:43:47;;;;;;;29.55;15.55;;;;;;;9.69;98.88;100279.53;5010279;28;20056;-78
2022/11/06 03:46:18;;;;;;;24.92;15.15;;;;;;;9.69;99.07;100280.44;5009862;28;20099;-78
2022/11/06 03:48:52;;;;;;;27.20;15.43;;;;;;;9.73;98.92;100290.84;5009799;28;20034;-79
2022/11/06 03:51:28;;;;;;;24.00;14.45;;;;;;;9.79;99.11;100291.94;5009930;28;20062;-78
2022/11/06 03:54:08;;;;;;;29.17;15.07;;;;;;;9.81;98.91;100292.88;5009945;28;20112;-79
2022/11/06 03:56:47;;;;;;;21.77;14.45;;;;;;;9.81;98.60;100269.69;5009853;28;20136;-79
2022/11/06 03:59:18;;;;;;;22.55;14.02;;;;;;;9.93;98.43;100276.09;5009693;28;20793;-78
2022/11/06 04:01:45;;;;;;;19.58;13.85;;;;;;;9.95;97.84;100282.19;5008286;28;20468;-78
2022/11/06 04:04:28;;;;;;;26.33;15.57;;;;;;;9.82;98.22;100284.31;5008233;28;20033;-79
2022/11/06 04:07:01;;;;;;;28.50;14.70;;;;;;;9.77;98.41;100290.13;5009627;28;20061;-79
2022/11/06 04:15:07;;;;;;;31.83;17.73;;;;;;;9.43;99.46;100260.50;5009667;28;20041;-79
2022/11/06 04:17:33;;;;;;;37.25;19.17;;;;;;;9.33;99.53;100243.81;5009325;28;20025;-79
2022/11/06 04:20:04;;;;;;;35.72;20.80;;;;;;;9.67;99.31;100294.03;5008275;28;20045;-79
2022/11/06 04:22:54;;;;;;;30.05;18.95;;;;;;;9.62;99.71;100278.44;5007876;28;20037;-79
2022/11/06 04:29:12;;;;;;;34.08;19.95;;;;;;;9.47;99.95;100237.50;5009305;28;20132;-79
2022/11/06 04:31:52;;;;;;;40.67;21.30;;;;;;;9.59;99.92;100246.50;5069300;28;20041;-78
2022/11/06 04:34:27;;;;;;;;;;;;;;;9.91;99.33;100283.78;5069939;28;20530;-79
2022/11/06 04:37:00;;;;;;;50.58;25.05;;;;;;;9.78;99.80;100291.88;5069302;28;19917;-79
2022/11/06 04:40:06;;;;;;;45.15;24.20;;;;;;;9.74;99.93;100292.59;5069204;28;20534;-79
2022/11/06 04:42:51;;;;;;;37.42;22.98;;;;;;;9.70;99.43;100294.19;5069276;28;20052;-79
2022/11/06 04:45:23;;;;;;;38.58;21.25;;;;;;;9.69;99.66;100306.22;5069178;28;20025;-79
2022/11/06 04:47:51;;;;;;;29.42;17.48;;;;;;;9.43;99.70;100237.31;5069119;28;20130;-79
2022/11/06 04:50:19;;;;;;;24.98;15.60;;;;;;;9.66;99.93;100284.59;5068984;28;20051;-79
2022/11/06 04:52:46;;;;;;;22.73;14.32;;;;;;;9.35;99.98;100244.75;5069123;28;20039;-79
2022/11/06 04:55:12;;;;;;;24.10;14.68;;;;;;;9.59;100.00;100285.16;5067227;28;20094;-79
2022/11/06 04:57:37;;;;;;;25.83;15.77;;;;;;;9.59;100.00;100290.31;5063793;28;20056;-79
2022/11/06 05:00:03;;;;;;;21.90;14.32;;;;;;;9.59;100.00;100286.03;5068699;28;20028;-79
2022/11/06 05:02:29;;;;;;;23.65;14.40;;;;;;;9.78;100.00;100295.34;5063311;28;20110;-79
2022/11/06 05:04:54;;;;;;;27.20;14.48;;;;;;;9.83;100.00;100291.25;5068677;28;20025;-79
2022/11/06 05:07:20;;;;;;;25.60;14.27;;;;;;;9.80;100.00;100298.84;5051902;28;20102;-79
2022/11/06 05:09:45;;;;;;;23.30;14.75;;;;;;;9.58;100.00;100255.06;5010554;28;20045;-79
2022/11/06 05:12:10;;;;;;;22.63;15.02;;;;;;;9.87;100.00;100294.81;5023832;28;20399;-79
2022/11/06 05:14:36;;;;;;;29.42;15.25;;;;;;;9.91;100.00;100291.53;5008406;28;20026;-79
2022/11/06 05:17:02;;;;;;;24.33;15.15;;;;;;;9.98;100.00;100302.94;5008683;28;20033;-79
2022/11/06 05:19:27;;;;;;;24.85;15.23;;;;;;;9.88;100.00;100292.28;5006459;28;20029;-79
2022/11/06 05:24:36;;;;;;;27.80;14.95;;;;;;;9.92;100.00;100302.69;5006095;28;20061;-79
2022/11/06 05:27:02;;;;;;;25.77;15.27;;;;;;;9.68;100.00;100257.16;4985743;28;20038;-79
2022/11/06 05:29:30;;;;;;;24.63;14.50;;;;;;;9.85;100.00;100302.47;4986463;28;20047;-79
2022/11/06 05:31:55;;;;;;;29.25;14.63;;;;;;;9.72;100.00;100302.88;4986452;28;20053;-79
2022/11/06 05:34:21;;;;;;;23.98;14.25;;;;;;;9.62;100.00;100305.88;4986458;28;20046;-79
2022/11/06 05:36:46;;;;;;;26.83;14.32;;;;;;;9.60;100.00;100295.53;4986670;28;20499;-79
2022/11/06 05:39:12;;;;;;;29.77;14.93;;;;;;;9.65;100.00;100300.88;4986090;28;20423;-79
2022/11/06 05:41:37;;;;;;;25.02;14.77;;;;;;;9.71;100.00;100316.56;4969734;28;20116;-79
2022/11/06 05:44:03;;;;;;;21.63;15.38;;;;;;;9.59;100.00;100296.34;4985988;28;20098;-79
2022/11/06 05:46:28;;;;;;;27.27;14.77;;;;;;;9.75;100.00;100315.00;4986093;28;20125;-78
2022/11/06 05:48:53;;;;;;;24.70;14.55;;;;;;;9.77;100.00;100308.16;4986159;28;20034;-79
2022/11/06 05:51:19;;;;;;;27.83;14.48;;;;;;;9.79;100.00;100315.13;4986088;28;20038;-79
2022/11/06 05:53:44;;;;;;;25.65;14.50;;;;;;;9.87;100.00;100311.16;4986583;28;20107;-79
2022/11/06 05:56:10;;;;;;;24.05;14.88;;;;;;;9.51;100.00;100236.78;4986139;28;20571;-79
2022/11/06 05:58:35;;;;;;;24.77;15.10;;;;;;;9.99;100.00;100309.84;5002124;28;20041;-79
2022/11/06 06:01:01;;;;;;;31.10;15.10;;;;;;;10.10;100.00;100324.00;5006537;28;20536;-79
2022/11/06 06:03:27;;;;;;;28.17;16.15;;;;;;;10.13;100.00;100320.66;5007806;28;20497;-79
2022/11/06 06:05:52;;;;;;;24.90;14.77;;;;;;;10.21;100.00;100319.25;5006457;28;20026;-79
2022/11/06 06:08:18;;;;;;;30.20;15.48;;;;;;;10.33;100.00;100321.38;5007873;28;20033;-79
2022/11/06 06:10:45;;;;;;;22.13;14.15;;;;;;;10.42;100.00;100337.22;5006535;28;20022;-79
2022/11/06 06:13:10;;;;;;;31.25;14.75;;;;;;;10.45;100.00;100327.00;5006437;28;20018;-79
2022/11/06 06:15:40;;;;;;;28.40;15.73;;;;;;;10.53;100.00;100332.47;5007846;28;20033;-79
2022/11/06 06:18:07;;;;;;;24.45;15.00;;;;;;;10.59;100.00;100336.94;5007671;28;20036;-80
2022/11/06 06:20:33;;;;;;;23.92;14.93;;;;;;;10.63;100.00;100338.78;5022401;28;20038;-79
2022/11/06 06:22:59;;;;;;;30.40;15.65;;;;;;;10.70;100.00;100342.47;5091086;28;20042;-79
2022/11/06 06:25:27;;;;;;;28.15;14.30;;;;;;;10.77;100.00;100355.66;5110792;28;20031;-79
2022/11/06 06:27:52;;;;;;;28.17;15.23;;;;;;;10.76;100.00;100348.72;5105495;28;20099;-79
2022/11/06 06:30:19;;;;;;;24.65;15.02;;;;;;;10.83;100.00;100355.00;5087435;28;20464;-79
2022/11/06 06:32:45;;;;;;;33.80;15.48;;;;;;;10.86;100.00;100349.06;5070767;28;20036;-79
2022/11/06 06:35:10;;;;;;;30.05;14.35;;;;;;;10.92;100.00;100352.72;5087618;28;20036;-79
2022/11/06 06:37:36;;;;;;;27.35;14.30;;;;;;;10.92;100.00;100346.69;5087391;28;20024;-79
2022/11/06 06:40:01;;;;;;;23.20;13.85;;;;;;;10.89;100.00;100346.56;5089074;28;20064;-80
2022/11/06 06:42:28;;;;;;;32.38;15.30;;;;;;;10.96;100.00;100367.47;5091216;28;20058;-79
2022/11/06 06:44:53;;;;;;;31.60;16.15;;;;;;;10.94;100.00;100379.47;5071816;28;20028;-79
2022/11/06 06:47:18;;;;;;;34.35;17.70;;;;;;;10.96;100.00;100375.22;5090810;28;20508;-80
2022/11/06 06:49:44;;;;;;;30.15;15.80;;;;;;;11.04;100.00;100388.41;5091023;28;20046;-79
2022/11/06 06:52:11;;;;;;;33.08;16.88;;;;;;;11.14;100.00;100381.81;5091136;28;20020;-79
2022/11/06 06:54:36;;;;;;;31.75;16.55;;;;;;;11.23;100.00;100391.63;5091437;28;20067;-79
2022/11/06 06:57:02;;;;;;;30.92;15.95;;;;;;;11.22;100.00;100379.53;5107471;28;20060;-79
2022/11/06 06:59:28;;;;;;;33.00;16.35;;;;;;;11.30;100.00;100388.38;5088293;28;20744;-79
2022/11/06 07:01:55;;;;;;;30.85;18.40;;;;;;;11.17;100.00;100345.78;5087141;28;20044;-80
2022/11/06 07:04:20;;;;;;;33.08;17.75;;;;;;;11.40;100.00;100371.47;5082536;28;20561;-79
2022/11/06 07:06:46;;;;;;;26.95;16.40;;;;;;;11.03;100.00;100313.44;5082506;28;20052;-79
2022/11/06 07:09:14;;;;;;;35.03;17.17;;;;;;;11.47;100.00;100384.63;5005850;28;20479;-79
2022/11/06 07:11:40;;;;;;;29.48;15.20;;;;;;;11.47;100.00;100386.34;5010078;28;20022;-79
2022/11/06 07:14:06;;;;;;;32.10;17.48;;;;;;;11.55;100.00;100384.00;5008433;28;20564;-80
2022/11/06 07:16:31;;;;;;;39.00;19.83;;;;;;;11.57;100.00;100374.59;5009959;28;20395;-79
2022/11/06 07:18:57;;;;;;;64.40;25.83;;;;;;;11.39;100.00;100326.66;5009845;28;20410;-79
2022/11/06 07:21:23;;;;;;;61.20;24.20;;;;;;;11.37;100.00;100328.31;5008363;28;20017;-79
2022/11/06 07:23:49;;;;;;;60.45;25.92;;;;;;;11.78;100.00;100389.91;5009852;28;20021;-79
2022/11/06 07:26:15;;;;;;;69.47;28.90;;;;;;;11.87;100.00;100386.72;5009645;28;20045;-79
2022/11/06 07:28:41;;;;;;;65.45;31.25;;;;;;;11.97;100.00;100386.19;5024651;28;20022;-79
2022/11/06 07:31:07;;;;;;;58.97;30.20;;;;;;;12.04;100.00;100389.84;5008134;28;20427;-79
2022/11/06 07:33:33;;;;;;;65.00;32.35;;;;;;;12.07;100.00;100385.63;5009500;28;20037;-80
2022/11/06 07:36:10;;;;;;;64.88;31.83;;;;;;;12.21;100.00;100387.75;5024807;28;20094;-79
2022/11/06 07:38:37;;;;;;;63.28;30.25;;;;;;;12.33;100.00;100392.41;5009706;28;20034;-79
2022/11/06 07:41:13;;;;;;;60.42;33.95;;;;;;;12.43;100.00;100395.28;5003622;28;20053;-79
2022/11/06 07:43:40;;;;;;;65.47;37.28;;;;;;;12.45;100.00;100392.75;5007482;28;20034;-79
2022/11/06 07:46:08;;;;;;;96.70;43.40;;;;;;;12.51;100.00;100402.38;5006292;28;20511;-79
2022/11/06 07:48:34;;;;;;;62.08;33.80;;;;;;;12.56;100.00;100401.69;5009552;28;20045;-80
2022/11/06 07:51:05;;;;;;;67.82;33.20;;;;;;;12.56;100.00;100387.84;5007670;28;20061;-79
2022/11/06 07:53:30;;;;;;;48.45;25.38;;;;;;;12.74;100.00;100397.84;5008287;28;20122;-80
2022/11/06 07:55:56;;;;;;;32.50;16.80;;;;;;;12.78;100.00;100390.22;5035780;27;20673;-80
2022/11/06 07:58:23;;;;;;;29.90;14.20;;;;;;;12.95;100.00;100397.53;5006443;28;20491;-79
2022/11/06 08:00:50;;;;;;;27.50;13.68;;;;;;;12.72;100.00;100330.47;5024520;28;20026;-80
2022/11/06 08:03:15;;;;;;;28.85;13.70;;;;;;;13.09;100.00;100377.16;5009531;28;20113;-80
2022/11/06 08:05:41;;;;;;;29.30;13.27;;;;;;;13.19;100.00;100376.53;5007258;28;20109;-80
2022/11/06 08:08:10;;;;;;;40.60;15.80;;;;;;;13.32;100.00;100385.50;5004735;28;20045;-80
2022/11/06 08:10:39;;;;;;;31.30;14.07;;;;;;;13.45;100.00;100384.13;4990360;28;20046;-80
2022/11/06 08:13:12;;;;;;;31.85;13.80;;;;;;;13.51;100.00;100379.06;4990371;28;20511;-79
2022/11/06 08:15:38;;;;;;;49.00;15.52;;;;;;;13.45;100.00;100365.97;5020660;28;20035;-79
2022/11/06 08:18:04;;;;;;;40.85;15.27;;;;;;;13.38;100.00;100344.22;4990372;28;20065;-79
2022/11/06 08:20:30;;;;;;;31.77;14.57;;;;;;;13.67;100.00;100377.72;4987286;28;20135;-79
2022/11/06 08:23:03;;;;;;;37.17;15.23;;;;;;;13.77;100.00;100384.00;5001948;28;20492;-80
2022/11/06 08:25:30;;;;;;;39.65;15.63;;;;;;;13.82;100.00;100381.47;4987318;28;20045;-79
2022/11/06 08:27:58;;;;;;;30.98;14.40;;;;;;;13.83;100.00;100373.75;5005502;28;20026;-79
2022/11/06 08:30:25;;;;;;;34.95;14.75;;;;;;;13.94;100.00;100391.28;5005871;28;20499;-80
2022/11/06 08:32:51;;;;;;;36.33;14.25;;;;;;;14.02;100.00;100384.53;5006126;28;20038;-79
2022/11/06 08:35:16;;;;;;;35.70;15.80;;;;;;;14.01;100.00;100368.06;5005641;28;20041;-79
2022/11/06 08:37:42;;;;;;;41.97;14.73;;;;;;;14.15;100.00;100386.53;5022011;28;20026;-80
2022/11/06 08:40:08;;;;;;;40.50;14.20;;;;;;;13.97;100.00;100344.59;5005759;28;20079;-80
2022/11/06 08:42:34;;;;;;;34.63;13.57;;;;;;;14.23;100.00;100392.78;5005712;28;20583;-80
2022/11/06 08:44:59;;;;;;;31.05;13.68;;;;;;;14.29;100.00;100381.63;5001809;28;20026;-78
2022/11/06 08:47:25;;;;;;;30.73;12.85;;;;;;;14.47;100.00;100382.84;4997148;28;20034;-79
2022/11/06 08:49:50;;;;;;;32.70;13.65;;;;;;;14.64;100.00;100384.06;5001922;28;20110;-73
2022/11/06 08:52:16;;;;;;;34.35;14.10;;;;;;;14.67;100.00;100378.94;5019880;28;20042;-79
2022/11/06 08:54:41;;;;;;;27.55;13.00;;;;;;;14.71;100.00;100375.53;4999786;28;20053;-73
2022/11/06 08:57:06;;;;;;;35.25;13.32;;;;;;;14.81;100.00;100379.19;4988927;28;20038;-77
2022/11/06 08:59:32;;;;;;;32.17;13.13;;;;;;;14.68;100.00;100343.44;4990545;28;20029;-74
2022/11/06 09:01:59;;;;;;;32.42;12.30;;;;;;;14.96;100.00;100370.78;4987047;28;20042;-77
2022/11/06 09:04:25;;;;;;;29.95;13.13;;;;;;;15.09;99.64;100382.28;4987124;28;20492;-82
2022/11/06 09:06:50;;;;;;;26.45;12.93;;;;;;;15.16;99.70;100378.91;5002955;28;20042;-81
2022/11/06 09:09:16;;;;;;;39.47;12.93;;;;;;;15.22;99.03;100367.75;5002331;28;20480;-79
2022/11/06 09:11:41;;;;;;;30.10;11.50;;;;;;;15.36;98.60;100376.66;4987883;28;20464;-85
2022/11/06 09:14:07;;;;;;;26.48;12.35;;;;;;;15.45;98.22;100377.63;5003347;28;20030;-80
2022/11/06 09:16:32;;;;;;;28.40;11.75;;;;;;;15.50;97.41;100375.97;4989123;28;20540;-77
2022/11/06 09:18:58;;;;;;;31.00;12.30;;;;;;;15.55;97.38;100379.53;5023225;27;20411;-81
2022/11/06 09:21:24;;;;;;;30.02;12.15;;;;;;;15.60;97.01;100371.78;5007451;28;20030;-72
2022/11/06 09:23:50;;;;;;;26.23;11.88;;;;;;;15.75;96.51;100387.66;4991131;28;20038;-73
2022/11/06 09:26:15;;;;;;;31.10;12.80;;;;;;;15.41;95.88;100313.41;4992875;28;20080;-72
2022/11/06 09:28:41;;;;;;;24.70;12.25;;;;;;;15.90;95.90;100387.03;4986494;28;20027;-77
2022/11/06 09:31:07;;;;;;;19.77;10.85;;;;;;;15.93;96.24;100376.63;4986867;28;20038;-73
2022/11/06 09:33:33;;;;;;;22.58;12.20;;;;;;;16.11;96.95;100376.03;4987318;28;20026;-73
2022/11/06 09:35:58;;;;;;;26.00;11.18;;;;;;;16.27;95.05;100364.03;5009322;27;20498;-76
2022/11/06 09:38:25;;;;;;;25.88;11.02;;;;;;;16.51;93.96;100380.84;4984379;28;20030;-77
2022/11/06 09:40:54;;;;;;;18.77;9.52;;;;;;;16.47;94.05;100338.22;4983041;28;20054;-78
2022/11/06 09:43:32;;;;;;;17.35;9.02;;;;;;;16.87;94.07;100355.97;4982818;28;20026;-75
2022/11/06 09:46:20;;;;;;;18.58;9.10;;;;;;;17.09;91.72;100359.69;4984420;28;20030;-76
2022/11/06 09:48:52;;;;;;;18.13;8.87;;;;;;;17.41;88.90;100360.81;5002518;28;20082;-76
2022/11/06 09:51:35;;;;;;;19.35;8.93;;;;;;;17.52;89.01;100371.31;5003468;28;20586;-75
2022/11/06 09:54:23;;;;;;;23.58;9.23;;;;;;;17.49;88.42;100372.16;5001835;28;20030;-78
2022/11/06 09:56:54;;;;;;;21.73;9.70;;;;;;;17.53;87.99;100368.69;5002766;28;20094;-75
2022/11/06 09:59:20;;;;;;;22.30;9.20;;;;;;;17.55;88.21;100351.31;5002639;28;20592;-73
2022/11/06 10:01:51;;;;;;;19.05;8.68;;;;;;;17.75;87.11;100361.88;5001547;28;20079;-76
2022/11/06 10:04:40;;;;;;;23.95;9.30;;;;;;;17.85;85.87;100362.81;5002991;28;20156;-75
2022/11/06 10:07:32;;;;;;;;;;;;;;;17.90;86.35;100361.09;5003848;28;20530;-76
2022/11/06 10:10:00;;;;;;;20.20;8.57;;;;;;;17.98;85.47;100357.69;4961356;28;19925;-75
2022/11/06 10:12:39;;;;;;;22.85;8.48;;;;;;;18.00;84.72;100367.28;4958692;28;20493;-75
2022/11/06 10:15:25;;;;;;;18.20;8.07;;;;;;;18.08;84.57;100360.34;4964315;28;20093;-77
2022/11/06 10:18:04;;;;;;;20.40;8.75;;;;;;;18.07;86.05;100313.34;4963198;28;20038;-74
2022/11/06 10:20:36;;;;;;;22.25;9.38;;;;;;;18.38;82.74;100348.25;4963837;28;20054;-73
2022/11/06 10:23:17;;;;;;;20.67;9.07;;;;;;;18.52;82.59;100335.22;4963744;28;20035;-75
2022/11/06 10:26:03;;;;;;;19.02;8.48;;;;;;;18.62;82.45;100350.91;4963673;28;20034;-73
2022/11/06 10:28:43;;;;;;;24.58;8.68;;;;;;;18.64;80.96;100349.19;4963629;28;20039;-74
2022/11/06 10:31:40;;;;;;;18.30;8.35;;;;;;;18.70;80.83;100349.19;4963883;28;20684;-75
2022/11/06 10:34:16;;;;;;;18.05;8.10;;;;;;;18.77;81.32;100348.34;4963329;28;20134;-73
2022/11/06 10:36:47;;;;;;;18.65;8.52;;;;;;;18.87;80.38;100341.38;4963472;28;20031;-73
2022/11/06 10:39:19;;;;;;;20.00;8.52;;;;;;;18.91;79.92;100323.09;4963604;28;20054;-73
2022/11/06 10:41:50;;;;;;;23.52;8.85;;;;;;;18.80;78.98;100288.19;4963510;28;20066;-75
2022/11/06 10:44:23;;;;;;;20.23;8.20;;;;;;;19.15;77.90;100337.06;4963598;28;20069;-75
2022/11/06 10:46:54;;;;;;;16.90;9.00;;;;;;;19.14;78.48;100323.97;4975008;28;20110;-76
2022/11/06 10:49:19;;;;;;;16.98;8.48;;;;;;;19.18;79.62;100331.81;5000545;28;20026;-75
2022/11/06 10:51:51;;;;;;;21.25;8.93;;;;;;;19.10;78.75;100323.09;4986069;28;20026;-75
2022/11/06 10:54:48;;;;;;;18.40;8.23;;;;;;;19.16;78.69;100332.69;5014706;28;20026;-76
2022/11/06 10:57:23;;;;;;;18.23;8.88;;;;;;;19.25;77.19;100322.19;5006106;28;20022;-79
2022/11/06 10:59:50;;;;;;;21.00;8.50;;;;;;;19.30;76.50;100314.34;5005137;28;20472;-75
2022/11/06 11:02:36;;;;;;;20.30;9.52;;;;;;;19.37;77.45;100308.25;5005713;28;20030;-76
2022/11/06 11:05:10;;;;;;;23.17;8.13;;;;;;;19.45;76.49;100313.44;5000620;28;20106;-77
2022/11/06 11:07:36;;;;;;;18.73;8.85;;;;;;;19.30;76.38;100272.47;4992858;28;20026;-74
2022/11/06 11:10:35;;;;;;;20.08;10.07;;;;;;;19.55;76.82;100316.06;4999863;28;20092;-75
2022/11/06 11:13:04;;;;;;;15.75;8.63;;;;;;;19.47;76.64;100307.34;4985213;28;20026;-75
2022/11/06 11:15:46;;;;;;;23.33;8.98;;;;;;;19.44;76.74;100312.59;5000086;28;20415;-77
2022/11/06 11:18:11;;;;;;;22.75;9.18;;;;;;;19.40;76.71;100306.50;4986515;28;20058;-76
2022/11/06 11:20:48;;;;;;;16.20;8.30;;;;;;;19.44;76.07;100309.09;4984862;28;20111;-78
2022/11/06 11:23:24;;;;;;;17.27;8.88;;;;;;;19.42;75.24;100300.38;4985077;28;20664;-75
2022/11/06 11:25:55;;;;;;;18.45;9.15;;;;;;;19.44;75.30;100306.47;4986750;28;20070;-76
2022/11/06 11:28:30;;;;;;;18.80;9.55;;;;;;;19.44;76.76;100304.75;4985222;28;20022;-75
2022/11/06 11:31:09;;;;;;;26.10;9.27;;;;;;;19.40;75.98;100295.13;5001941;28;20038;-76
2022/11/06 11:33:36;;;;;;;21.30;8.38;;;;;;;19.24;75.40;100260.28;4989728;28;20086;-77
2022/11/06 11:36:05;;;;;;;18.05;8.75;;;;;;;19.48;75.61;100290.75;4998913;28;20026;-79
2022/11/06 11:38:34;;;;;;;14.43;8.05;;;;;;;19.56;74.77;100301.19;5021334;28;21050;-75